Pacific Dawn — 3ECJ9 — position and weather

sailwx.info

Track history (hours):
 
Tides and Currents Weather Stations Pressure Air Temp Water Temp Dewpoint Dewpoint Depression Visibility Wind Speed Wind Dir Waves Ship Positions

Pacific Dawn

Last reported at 2015-Jun-28 03:14 UTC. Time now 2015-Jul-02 08:07 UTC.
Position N 26°43' W 115°08'.

Length 239 m; draft 8 m.

Type: Tanker. MMSI: 371361000.

Date/timePositionNaut miles runAvg speedWind from/ knotsBaromVisibWave heightAir tempDewpointWater temp
2015-Jun-28 03:14N 26°43' W 115°08'1015.5
2015-Jun-28 02:34N 26°52' W 115°14'3415.1
2015-Jun-28 00:19N 27°20' W 115°35'1314.9
2015-Jun-27 23:26N 27°31' W 115°43'1514.8
2015-Jun-27 22:25N 27°44' W 115°52'5814.9
2015-Jun-27 18:32N 28°32' W 116°28'1515.3
2015-Jun-27 17:33N 28°45' W 116°36'1615.5
2015-Jun-27 16:33N 28°58' W 116°46'1515.0
2015-Jun-27 15:33N 29°11' W 116°56'1514.2
2015-Jun-27 14:28N 29°23' W 117°05'3114.8
2015-Jun-27 12:21N 29°50' W 117°25'1215.1
2015-Jun-27 11:34N 29°60' W 117°32'1515.2
2015-Jun-27 10:33N 30°13' W 117°42'1615.1
2015-Jun-27 09:31N 30°26' W 117°52'1414.7
2015-Jun-27 08:33N 30°38' W 118°01'1514.8
2015-Jun-27 07:33N 30°50' W 118°10'1515.1
2015-Jun-27 06:33N 31°03' W 118°19'1312.8
2015-Jun-27 05:33N 31°14' W 118°28'10 9.9
2015-Jun-27 04:33N 31°22' W 118°34'3 2.6
2015-Jun-27 03:33N 31°24' W 118°35'3 3.2
2015-Jun-27 02:33N 31°27' W 118°37'2 1.8
2015-Jun-27 01:33N 31°28' W 118°38'1 1.2
2015-Jun-27 00:33N 31°29' W 118°40'1 1.1
2015-Jun-26 23:32N 31°30' W 118°41'1 1.1
2015-Jun-26 22:33N 31°30' W 118°42'1 1.2
2015-Jun-26 21:33N 31°31' W 118°43'1 1.3
2015-Jun-26 20:33N 31°32' W 118°44'1 1.4
2015-Jun-26 19:33N 31°32' W 118°46'2 1.6
2015-Jun-26 18:33N 31°33' W 118°48'2 1.8
2015-Jun-26 17:33N 31°33' W 118°50'1 1.5
2015-Jun-26 16:33N 31°34' W 118°51'2 1.6
2015-Jun-26 15:33N 31°34' W 118°53'2 1.7
2015-Jun-26 14:33N 31°35' W 118°55'2 1.6
2015-Jun-26 13:34N 31°36' W 118°57'1 1.1
2015-Jun-26 12:33N 31°36' W 118°58'1 0.7
2015-Jun-26 11:33N 31°37' W 118°58'1 0.6
2015-Jun-26 10:33N 31°37' W 118°59'1 0.7
2015-Jun-26 09:33N 31°37' W 118°60'1 0.7
2015-Jun-26 08:34N 31°38' W 119°00'1 0.7
2015-Jun-26 07:34N 31°38' W 119°01'1 0.8
2015-Jun-26 06:33N 31°39' W 119°01'2 1.9
2015-Jun-26 05:33N 31°40' W 119°03'2 2.0
2015-Jun-26 04:33N 31°42' W 119°05'2 1.6
2015-Jun-26 03:34N 31°43' W 119°06'2 2.2
2015-Jun-26 02:33N 31°44' W 119°08'2 2.2
2015-Jun-26 01:33N 31°45' W 119°10'2 1.8
2015-Jun-26 00:33N 31°47' W 119°11'2 1.5
2015-Jun-25 23:34N 31°48' W 119°13'3 2.8
2015-Jun-25 22:33N 31°50' W 119°15'5 5.4
2015-Jun-25 21:33N 31°54' W 119°19'5 5.0
2015-Jun-25 20:33N 31°56' W 119°25'4 4.2
2015-Jun-25 19:33N 31°55' W 119°30'3 3.0
2015-Jun-25 18:33N 31°58' W 119°31'5 5.1
2015-Jun-25 17:33N 32°02' W 119°35'2 1.8
2015-Jun-25 16:33N 32°03' W 119°35'2 1.2
2015-Jun-25 15:05N 32°05' W 119°36'1 1.3
2015-Jun-25 14:29N 32°06' W 119°36'1 1.4
2015-Jun-25 13:33N 32°07' W 119°36'1 1.5
2015-Jun-25 12:33N 32°09' W 119°36'2 1.6
2015-Jun-25 11:30N 32°10' W 119°37'2 1.7
2015-Jun-25 10:33N 32°12' W 119°37'2 1.6
2015-Jun-25 09:33N 32°13' W 119°37'2 1.7
2015-Jun-25 08:31N 32°15' W 119°38'1 0.7
2015-Jun-25 07:33N 32°15' W 119°37'6 6.4
2015-Jun-25 06:32N 32°09' W 119°36'8 7.8
2015-Jun-25 05:33N 32°01' W 119°35'0 0.2
2015-Jun-25 04:33N 32°01' W 119°35'2 2.0
2015-Jun-25 03:33N 32°03' W 119°35'2 1.9
2015-Jun-25 02:33N 32°05' W 119°36'2 1.9
2015-Jun-25 01:34N 32°07' W 119°36'2 1.9
2015-Jun-25 00:21N 32°09' W 119°36'2 2.0
2015-Jun-24 23:21N 32°11' W 119°37'0 0.5
2015-Jun-24 22:33N 32°11' W 119°36'7 7.1
2015-Jun-24 21:30N 32°05' W 119°31'4 3.8
2015-Jun-24 20:33N 32°02' W 119°30'2 1.8
2015-Jun-24 19:33N 32°03' W 119°32'2 1.7
2015-Jun-24 18:33N 32°04' W 119°33'2 1.7
2015-Jun-24 17:33N 32°05' W 119°35'2 1.6
2015-Jun-24 16:33N 32°06' W 119°36'1 1.0
2015-Jun-24 15:32N 32°07' W 119°35'2 2.3
2015-Jun-24 14:34N 32°05' W 119°34'3 2.7
2015-Jun-24 13:33N 32°02' W 119°32'8 6.5
2015-Jun-24 12:24N 31°56' W 119°27'4 4.2
2015-Jun-24 11:29N 31°53' W 119°25'9 9.5
2015-Jun-24 10:33N 31°45' W 119°19'1110.8
2015-Jun-24 09:33N 31°37' W 119°12'1111.0
2015-Jun-24 08:33N 31°27' W 119°05'1111.0
2015-Jun-24 07:33N 31°18' W 118°58'1111.1
2015-Jun-24 06:33N 31°09' W 118°51'1111.0
2015-Jun-24 05:33N 30°60' W 118°44'1110.9
2015-Jun-24 04:33N 30°51' W 118°37'1111.1
2015-Jun-24 03:34N 30°41' W 118°30'1111.0
2015-Jun-24 02:34N 30°32' W 118°23'1111.0
2015-Jun-24 01:34N 30°23' W 118°16'1110.7
2015-Jun-24 00:33N 30°14' W 118°09'1010.0
2015-Jun-23 23:33N 30°06' W 118°03'1111.2
2015-Jun-23 22:34N 29°56' W 117°56'1212.0
2015-Jun-23 21:33N 29°46' W 117°49'1312.1
2015-Jun-23 20:30N 29°36' W 117°40'1412.5
2015-Jun-23 19:24N 29°24' W 117°31'512.5
2015-Jun-23 19:02N 29°21' W 117°28'  
Track history (hours):
 
Tides and Currents Weather Stations Pressure Air Temp Water Temp Dewpoint Dewpoint Depression Visibility Wind Speed Wind Dir Waves Ship Positions

Pacific Dawn

Last reported at 2015-Jun-28 03:14 UTC. Time now 2015-Jul-02 08:07 UTC.
Position N 26°43' W 115°08'.

Length 239 m; draft 8 m.

Type: Tanker. MMSI: 371361000.

Date/timePositionNaut miles runAvg speedWind from/ knotsBaromVisibWave heightAir tempDewpointWater temp
2015-Jun-28 03:14N 26°43' W 115°08'1015.5
2015-Jun-28 02:34N 26°52' W 115°14'3415.1
2015-Jun-28 00:19N 27°20' W 115°35'1314.9
2015-Jun-27 23:26N 27°31' W 115°43'1514.8
2015-Jun-27 22:25N 27°44' W 115°52'5814.9
2015-Jun-27 18:32N 28°32' W 116°28'1515.3
2015-Jun-27 17:33N 28°45' W 116°36'1615.5
2015-Jun-27 16:33N 28°58' W 116°46'1515.0
2015-Jun-27 15:33N 29°11' W 116°56'1514.2
2015-Jun-27 14:28N 29°23' W 117°05'3114.8
2015-Jun-27 12:21N 29°50' W 117°25'1215.1
2015-Jun-27 11:34N 29°60' W 117°32'1515.2
2015-Jun-27 10:33N 30°13' W 117°42'1615.1
2015-Jun-27 09:31N 30°26' W 117°52'1414.7
2015-Jun-27 08:33N 30°38' W 118°01'1514.8
2015-Jun-27 07:33N 30°50' W 118°10'1515.1
2015-Jun-27 06:33N 31°03' W 118°19'1312.8
2015-Jun-27 05:33N 31°14' W 118°28'10 9.9
2015-Jun-27 04:33N 31°22' W 118°34'3 2.6
2015-Jun-27 03:33N 31°24' W 118°35'3 3.2
2015-Jun-27 02:33N 31°27' W 118°37'2 1.8
2015-Jun-27 01:33N 31°28' W 118°38'1 1.2
2015-Jun-27 00:33N 31°29' W 118°40'1 1.1
2015-Jun-26 23:32N 31°30' W 118°41'1 1.1
2015-Jun-26 22:33N 31°30' W 118°42'1 1.2
2015-Jun-26 21:33N 31°31' W 118°43'1 1.3
2015-Jun-26 20:33N 31°32' W 118°44'1 1.4
2015-Jun-26 19:33N 31°32' W 118°46'2 1.6
2015-Jun-26 18:33N 31°33' W 118°48'2 1.8
2015-Jun-26 17:33N 31°33' W 118°50'1 1.5
2015-Jun-26 16:33N 31°34' W 118°51'2 1.6
2015-Jun-26 15:33N 31°34' W 118°53'2 1.7
2015-Jun-26 14:33N 31°35' W 118°55'2 1.6
2015-Jun-26 13:34N 31°36' W 118°57'1 1.1
2015-Jun-26 12:33N 31°36' W 118°58'1 0.7
2015-Jun-26 11:33N 31°37' W 118°58'1 0.6
2015-Jun-26 10:33N 31°37' W 118°59'1 0.7
2015-Jun-26 09:33N 31°37' W 118°60'1 0.7
2015-Jun-26 08:34N 31°38' W 119°00'1 0.7
2015-Jun-26 07:34N 31°38' W 119°01'1 0.8
2015-Jun-26 06:33N 31°39' W 119°01'2 1.9
2015-Jun-26 05:33N 31°40' W 119°03'2 2.0
2015-Jun-26 04:33N 31°42' W 119°05'2 1.6
2015-Jun-26 03:34N 31°43' W 119°06'2 2.2
2015-Jun-26 02:33N 31°44' W 119°08'2 2.2
2015-Jun-26 01:33N 31°45' W 119°10'2 1.8
2015-Jun-26 00:33N 31°47' W 119°11'2 1.5
2015-Jun-25 23:34N 31°48' W 119°13'3 2.8
2015-Jun-25 22:33N 31°50' W 119°15'5 5.4
2015-Jun-25 21:33N 31°54' W 119°19'5 5.0
2015-Jun-25 20:33N 31°56' W 119°25'4 4.2
2015-Jun-25 19:33N 31°55' W 119°30'3 3.0
2015-Jun-25 18:33N 31°58' W 119°31'5 5.1
2015-Jun-25 17:33N 32°02' W 119°35'2 1.8
2015-Jun-25 16:33N 32°03' W 119°35'2 1.2
2015-Jun-25 15:05N 32°05' W 119°36'1 1.3
2015-Jun-25 14:29N 32°06' W 119°36'1 1.4
2015-Jun-25 13:33N 32°07' W 119°36'1 1.5
2015-Jun-25 12:33N 32°09' W 119°36'2 1.6
2015-Jun-25 11:30N 32°10' W 119°37'2 1.7
2015-Jun-25 10:33N 32°12' W 119°37'2 1.6
2015-Jun-25 09:33N 32°13' W 119°37'2 1.7
2015-Jun-25 08:31N 32°15' W 119°38'1 0.7
2015-Jun-25 07:33N 32°15' W 119°37'6 6.4
2015-Jun-25 06:32N 32°09' W 119°36'8 7.8
2015-Jun-25 05:33N 32°01' W 119°35'0 0.2
2015-Jun-25 04:33N 32°01' W 119°35'2 2.0
2015-Jun-25 03:33N 32°03' W 119°35'2 1.9
2015-Jun-25 02:33N 32°05' W 119°36'2 1.9
2015-Jun-25 01:34N 32°07' W 119°36'2 1.9
2015-Jun-25 00:21N 32°09' W 119°36'2 2.0
2015-Jun-24 23:21N 32°11' W 119°37'0 0.5
2015-Jun-24 22:33N 32°11' W 119°36'7 7.1
2015-Jun-24 21:30N 32°05' W 119°31'4 3.8
2015-Jun-24 20:33N 32°02' W 119°30'2 1.8
2015-Jun-24 19:33N 32°03' W 119°32'2 1.7
2015-Jun-24 18:33N 32°04' W 119°33'2 1.7
2015-Jun-24 17:33N 32°05' W 119°35'2 1.6
2015-Jun-24 16:33N 32°06' W 119°36'1 1.0
2015-Jun-24 15:32N 32°07' W 119°35'2 2.3
2015-Jun-24 14:34N 32°05' W 119°34'3 2.7
2015-Jun-24 13:33N 32°02' W 119°32'8 6.5
2015-Jun-24 12:24N 31°56' W 119°27'4 4.2
2015-Jun-24 11:29N 31°53' W 119°25'9 9.5
2015-Jun-24 10:33N 31°45' W 119°19'1110.8
2015-Jun-24 09:33N 31°37' W 119°12'1111.0
2015-Jun-24 08:33N 31°27' W 119°05'1111.0
2015-Jun-24 07:33N 31°18' W 118°58'1111.1
2015-Jun-24 06:33N 31°09' W 118°51'1111.0
2015-Jun-24 05:33N 30°60' W 118°44'1110.9
2015-Jun-24 04:33N 30°51' W 118°37'1111.1
2015-Jun-24 03:34N 30°41' W 118°30'1111.0
2015-Jun-24 02:34N 30°32' W 118°23'1111.0
2015-Jun-24 01:34N 30°23' W 118°16'1110.7
2015-Jun-24 00:33N 30°14' W 118°09'1010.0
2015-Jun-23 23:33N 30°06' W 118°03'1111.2
2015-Jun-23 22:34N 29°56' W 117°56'1212.0
2015-Jun-23 21:33N 29°46' W 117°49'1312.1
2015-Jun-23 20:30N 29°36' W 117°40'1412.5
2015-Jun-23 19:24N 29°24' W 117°31'512.5
2015-Jun-23 19:02N 29°21' W 117°28'  

Dump ship's entire track history